Detroit, Michigan
Traffic Map
Current Weather Conditions
Detroit, Michigan
Scattered Clouds
Scattered Clouds
32°
Feels Like: 32°
Wind Chill: 32° Ceiling: Unl
Heat Index: 32° Visibility: 15mi
Dew Point: 17° Wind: 25mph
Humidity: 40% Direction: 240° (WSW)
Pressure: 29.75in Gusts: 31mph
Raw Report DataCYQG 022000Z 24022G27KT 15SM FEW060 SCT290 32/17 A2975 RMK CU1CI3 SLP071 DENSITY ALT 2900FT
Traffic Incident Summary
Active as of:
Severity:
Category:
InformationThere was an issue retrieving the traffic information for this location. Please try a different location or try again shortly.
Advertisements
Track Severe Weather on mobile